Time;durP1;ratioP1;P1;durP2;ratioP2;P2;SDS_P1;SDS_P2;PMS_P1;PMS_P2;Temp;Humidity;BMP_temperature;BMP_pressure;BME280_temperature;BME280_humidity;BME280_pressure;Samples;Min_cycle;Max_cycle;Signal;HPM_P1;HPM_P2
2023/10/28 00:00:19;;;;;;;15.65;6.80;;;13.50;99.90;;;13.64;100.00;99273.94;4829133;29;20093;-64
2023/10/28 00:02:47;;;;;;;12.25;6.60;;;13.50;99.90;;;13.68;100.00;99262.25;4828620;29;20068;-63
2023/10/28 00:05:16;;;;;;;17.02;7.75;;;13.40;99.90;;;13.70;100.00;99266.56;4825228;29;20133;-63
2023/10/28 00:07:46;;;;;;;12.60;7.20;;;13.40;99.90;;;13.73;100.00;99270.88;4826056;29;20054;-63
2023/10/28 00:10:14;;;;;;;13.10;7.20;;;13.40;99.90;;;13.72;100.00;99278.00;4825755;29;20400;-63
2023/10/28 00:12:43;;;;;;;18.15;7.82;;;13.40;99.90;;;13.71;100.00;99278.03;4809714;29;20377;-63
2023/10/28 00:15:13;;;;;;;18.75;8.13;;;13.40;99.90;;;13.70;100.00;99271.88;4825555;29;20111;-63
2023/10/28 00:17:42;;;;;;;19.20;8.73;;;13.40;99.90;;;13.72;100.00;99280.66;4825652;29;20479;-64
2023/10/28 00:20:13;;;;;;;20.73;9.00;;;13.50;99.90;;;13.76;100.00;99270.75;4825840;29;20074;-64
2023/10/28 00:22:41;;;;;;;19.20;9.13;;;13.50;99.90;;;13.72;100.00;99271.81;4825840;29;20066;-63
2023/10/28 00:25:12;;;;;;;21.15;9.13;;;13.50;99.90;;;13.72;100.00;99280.66;4825302;29;20062;-64
2023/10/28 00:27:40;;;;;;;19.55;9.00;;;13.40;99.90;;;13.68;100.00;99279.06;4825593;29;20053;-63
2023/10/28 00:30:10;;;;;;;19.38;8.27;;;13.40;99.90;;;13.67;100.00;99279.09;4825868;29;20046;-63
2023/10/28 00:32:39;;;;;;;18.70;9.10;;;13.40;99.90;;;13.76;100.00;99276.06;4811118;29;20068;-63
2023/10/28 00:35:11;;;;;;;22.90;8.68;;;13.50;99.90;;;13.72;100.00;99269.16;4820775;29;20047;-63
2023/10/28 00:37:39;;;;;;;20.98;8.88;;;13.50;99.90;;;13.73;100.00;99278.84;4809414;29;20418;-64
2023/10/28 00:40:10;;;;;;;17.15;8.25;;;13.50;99.90;;;13.78;100.00;99275.06;4825207;29;20062;-63
2023/10/28 00:42:39;;;;;;;16.02;8.30;;;13.50;99.90;;;13.84;100.00;99276.63;4825543;29;20135;-63
2023/10/28 00:45:11;;;;;;;17.83;8.57;;;13.50;99.90;;;13.85;100.00;99278.31;4825327;29;20507;-63
2023/10/28 00:47:44;;;;;;;19.88;8.57;;;13.60;99.90;;;13.86;100.00;99282.72;4825241;29;20450;-63
2023/10/28 00:50:15;;;;;;;18.35;8.20;;;13.60;99.90;;;13.87;100.00;99281.78;4825363;29;20137;-63
2023/10/28 00:52:46;;;;;;;17.63;8.27;;;13.60;99.90;;;13.95;100.00;99277.00;4809037;29;20485;-63
2023/10/28 00:55:18;;;;;;;18.40;8.68;;;13.70;99.90;;;13.97;100.00;99275.16;4808699;29;20056;-63
2023/10/28 00:57:47;;;;;;;15.32;8.18;;;13.70;99.90;;;13.99;100.00;99275.94;4794990;29;20097;-63
2023/10/28 01:00:17;;;;;;;19.23;7.72;;;13.70;99.90;;;14.06;100.00;99269.41;4809116;29;20047;-63
2023/10/28 01:02:46;;;;;;;18.20;7.90;;;13.80;99.90;;;14.07;100.00;99271.16;4825241;29;20054;-63
2023/10/28 01:05:16;;;;;;;18.70;7.50;;;13.80;99.90;;;13.93;100.00;99246.97;4825275;29;20054;-63
2023/10/28 01:07:47;;;;;;;18.55;8.30;;;13.80;99.90;;;14.09;100.00;99277.28;4824994;29;20082;-63
2023/10/28 01:10:27;;;;;;;18.85;7.45;;;13.80;99.90;;;14.03;100.00;99277.53;4808770;29;20050;-63
2023/10/28 01:12:56;;;;;;;12.32;7.00;;;13.80;99.90;;;14.03;99.86;99274.88;4825042;29;20046;-63
2023/10/28 01:15:26;;;;;;;14.82;7.03;;;13.80;99.90;;;13.99;100.00;99267.97;4807948;29;20070;-63
2023/10/28 01:17:54;;;;;;;15.70;7.05;;;13.80;99.90;;;13.93;100.00;99262.91;4820671;29;20051;-63
2023/10/28 01:20:23;;;;;;;17.08;7.32;;;13.70;99.90;;;13.95;100.00;99261.06;4822530;29;20046;-64
2023/10/28 01:22:53;;;;;;;17.60;7.10;;;13.70;99.90;;;13.99;100.00;99260.00;4824911;29;20117;-63
2023/10/28 01:25:22;;;;;;;15.40;7.32;;;13.70;99.90;;;13.98;100.00;99263.56;4824926;29;20425;-64
2023/10/28 01:27:50;;;;;;;16.80;7.18;;;13.70;99.90;;;13.95;100.00;99266.38;4824749;29;20050;-61
2023/10/28 01:30:18;;;;;;;17.85;7.30;;;13.70;99.90;;;13.89;100.00;99275.47;4824500;29;20062;-62
2023/10/28 01:32:47;;;;;;;20.00;7.50;;;13.70;99.90;;;13.92;100.00;99277.13;4824225;29;20490;-62
2023/10/28 01:35:15;;;;;;;16.20;7.72;;;13.70;99.90;;;13.81;100.00;99268.75;4824255;29;20058;-62
2023/10/28 01:37:44;;;;;;;23.23;9.23;;;13.60;99.90;;;13.78;100.00;99268.91;4824397;29;20054;-62
2023/10/28 01:40:14;;;;;;;20.05;8.70;;;13.50;99.90;;;13.73;100.00;99273.53;4807874;29;20134;-62
2023/10/28 01:42:45;;;;;;;16.85;8.05;;;13.50;99.90;;;13.48;100.00;99249.81;4824437;29;20411;-62
2023/10/28 01:45:15;;;;;;;18.10;8.80;;;13.50;99.90;;;12.87;100.00;99145.28;4807986;29;20412;-62
2023/10/28 01:47:45;;;;;;;17.00;8.13;;;13.50;99.90;;;13.51;100.00;99276.25;4824187;29;20078;-61
2023/10/28 01:50:13;;;;;;;18.90;8.68;;;13.30;99.90;;;13.62;100.00;99275.78;4807687;29;20310;-62
2023/10/28 01:52:44;;;;;;;17.00;8.10;;;13.40;99.90;;;13.50;100.00;99274.50;4819783;29;20070;-62
2023/10/28 01:55:14;;;;;;;15.68;8.70;;;13.40;99.90;;;13.56;100.00;99269.81;4807535;29;20153;-62
2023/10/28 01:57:43;;;;;;;21.10;9.07;;;13.40;99.90;;;13.54;100.00;99276.13;4824272;29;20050;-62
2023/10/28 02:00:16;;;;;;;17.08;9.05;;;13.40;99.90;;;13.42;100.00;99236.78;4824144;29;20129;-62
2023/10/28 02:02:46;;;;;;;16.55;8.30;;;13.40;99.90;;;13.52;100.00;99267.34;4824084;29;20102;-62
2023/10/28 02:05:16;;;;;;;21.88;8.75;;;13.40;99.90;;;13.45;100.00;99257.91;4823864;29;20141;-61
2023/10/28 02:07:45;;;;;;;19.17;8.75;;;13.30;99.90;;;13.45;100.00;99260.56;4824057;29;20378;-61
2023/10/28 02:10:15;;;;;;;21.53;8.90;;;13.30;99.90;;;13.45;100.00;99248.13;4810107;29;20137;-62
2023/10/28 02:12:44;;;;;;;18.60;9.17;;;13.30;99.90;;;13.45;100.00;99249.94;4823990;29;20057;-62
2023/10/28 02:15:13;;;;;;;22.08;9.60;;;13.30;99.90;;;13.45;100.00;99252.59;4807528;29;20065;-62
2023/10/28 02:17:41;;;;;;;20.05;10.15;;;13.30;99.90;;;13.47;100.00;99248.94;4824148;29;20062;-62
2023/10/28 02:20:13;;;;;;;20.70;9.48;;;13.30;99.90;;;13.51;100.00;99249.69;4807370;29;20054;-62
2023/10/28 02:22:42;;;;;;;21.25;9.65;;;13.30;99.90;;;13.45;100.00;99253.44;4807294;29;20149;-62
2023/10/28 02:25:10;;;;;;;19.60;9.77;;;13.30;99.90;;;13.48;100.00;99260.44;4823573;29;20062;-62
2023/10/28 02:27:42;;;;;;;18.92;9.73;;;13.30;99.90;;;13.40;100.00;99249.25;4806457;29;20050;-62
2023/10/28 02:30:13;;;;;;;22.10;10.13;;;13.20;99.90;;;13.32;100.00;99243.41;4807169;29;20058;-62
2023/10/28 02:32:42;;;;;;;19.98;9.63;;;13.20;99.90;;;13.33;100.00;99242.50;4823483;29;20043;-62
2023/10/28 02:35:11;;;;;;;20.38;9.77;;;13.10;99.90;;;13.24;100.00;99234.91;4823545;29;20137;-62
2023/10/28 02:37:40;;;;;;;17.73;8.98;;;13.10;99.90;;;13.32;100.00;99238.09;4823267;29;20558;-62
2023/10/28 02:40:09;;;;;;;16.70;8.73;;;13.10;99.90;;;13.15;100.00;99241.44;4823663;29;20047;-62
2023/10/28 02:42:39;;;;;;;18.37;8.63;;;13.10;99.90;;;13.05;100.00;99242.75;4823649;29;20516;-62
2023/10/28 02:45:09;;;;;;;16.73;9.03;;;12.90;99.90;;;12.96;100.00;99234.25;4821357;29;20500;-61
2023/10/28 02:47:38;;;;;;;23.48;10.05;;;12.90;99.90;;;12.97;100.00;99241.31;4823501;29;20481;-62
2023/10/28 02:50:08;;;;;;;22.20;10.07;;;12.80;99.90;;;12.84;100.00;99240.91;4823914;29;20138;-62
2023/10/28 02:52:36;;;;;;;18.42;9.70;;;12.70;99.90;;;12.92;100.00;99246.78;4807004;29;20149;-61
2023/10/28 02:55:06;;;;;;;22.33;10.45;;;12.70;99.90;;;12.92;100.00;99249.44;4806961;29;20106;-62
2023/10/28 02:57:35;;;;;;;18.10;9.45;;;12.80;99.90;;;12.92;100.00;99235.31;4814065;29;20058;-62
2023/10/28 03:00:08;;;;;;;16.33;10.07;;;12.70;99.90;;;12.98;100.00;99248.34;4823715;29;20064;-61
2023/10/28 03:02:37;;;;;;;13.38;9.60;;;12.80;99.90;;;13.01;100.00;99243.75;4807119;29;20054;-62
2023/10/28 03:05:06;;;;;;;19.17;10.00;;;12.80;99.90;;;13.00;100.00;99244.69;4823202;29;20047;-62
2023/10/28 03:07:35;;;;;;;15.85;9.25;;;12.80;99.90;;;12.87;100.00;99246.13;4823413;29;20135;-62
2023/10/28 03:10:04;;;;;;;11.77;8.90;;;12.70;99.90;;;12.96;100.00;99243.09;4809165;29;20141;-61
2023/10/28 03:12:32;;;;;;;12.05;8.38;;;12.80;99.90;;;12.97;100.00;99251.94;4823504;29;20054;-62
2023/10/28 03:15:00;;;;;;;13.40;9.30;;;12.70;99.90;;;12.92;100.00;99252.09;4823663;29;20240;-62
2023/10/28 03:17:30;;;;;;;13.93;8.82;;;12.80;99.90;;;12.91;100.00;99238.91;4823012;29;20047;-62
2023/10/28 03:19:58;;;;;;;14.40;8.23;;;12.70;99.90;;;12.86;100.00;99247.03;4823022;29;20505;-62
2023/10/28 03:22:27;;;;;;;15.32;9.68;;;12.70;99.90;;;12.78;100.00;99250.91;4814179;29;20149;-62
2023/10/28 03:24:55;;;;;;;16.42;10.63;;;12.70;99.90;;;12.77;100.00;99244.75;4822620;29;20600;-61
2023/10/28 03:27:24;;;;;;;15.93;9.20;;;12.70;99.90;;;12.78;100.00;99246.47;4806721;29;20516;-62
2023/10/28 03:29:52;;;;;;;14.57;9.18;;;12.60;99.90;;;12.80;100.00;99249.06;4815804;29;20569;-62
2023/10/28 03:32:23;;;;;;;14.55;9.32;;;12.70;99.90;;;12.77;100.00;99243.88;4823334;29;20115;-62
2023/10/28 03:34:53;;;;;;;15.02;8.45;;;12.60;99.90;;;12.90;100.00;99235.38;4807525;29;20125;-62
2023/10/28 03:37:21;;;;;;;14.30;8.53;;;12.70;99.90;;;12.85;100.00;99247.97;4817213;29;20100;-61
2023/10/28 03:39:51;;;;;;;15.48;8.98;;;12.70;99.90;;;12.87;100.00;99237.28;4809735;29;20303;-62
2023/10/28 03:42:19;;;;;;;13.93;7.97;;;12.70;99.90;;;12.95;100.00;99244.00;4826525;29;20074;-62
2023/10/28 03:44:47;;;;;;;14.85;8.65;;;12.80;99.90;;;13.01;100.00;99232.28;4825930;29;20110;-62
2023/10/28 03:47:16;;;;;;;14.45;7.45;;;12.80;99.90;;;13.06;100.00;99236.53;4826056;29;20085;-62
2023/10/28 03:49:44;;;;;;;15.25;6.88;;;12.90;99.90;;;13.07;100.00;99230.28;4826107;29;20137;-61
2023/10/28 03:52:14;;;;;;;8.48;6.32;;;12.90;99.90;;;13.11;100.00;99226.56;4825847;29;20133;-62
2023/10/28 03:54:43;;;;;;;11.10;6.00;;;12.90;99.90;;;13.09;100.00;99228.44;4825811;29;20054;-61
2023/10/28 03:57:11;;;;;;;11.18;6.40;;;12.90;99.90;;;13.06;100.00;99236.53;4825737;29;20845;-62
2023/10/28 03:59:39;;;;;;;9.65;6.30;;;12.90;99.90;;;13.15;100.00;99219.34;4825953;29;20072;-62
2023/10/28 04:02:08;;;;;;;11.15;6.45;;;13.00;99.90;;;13.20;100.00;99231.50;4825652;29;20103;-62
2023/10/28 04:04:36;;;;;;;8.98;5.70;;;13.00;99.90;;;13.05;100.00;99218.84;4825660;29;20050;-61
2023/10/28 04:07:05;;;;;;;10.35;6.25;;;12.90;99.90;;;12.91;100.00;99225.63;4825565;29;20054;-62
2023/10/28 04:09:35;;;;;;;14.43;6.30;;;12.80;99.90;;;12.88;100.00;99223.97;4825459;29;20065;-61
2023/10/28 04:12:06;;;;;;;11.27;5.80;;;12.70;99.90;;;12.90;100.00;99219.44;4809432;29;20062;-62
2023/10/28 04:14:35;;;;;;;10.82;6.55;;;12.80;99.90;;;12.95;100.00;99217.47;4825445;29;20103;-63
2023/10/28 04:17:04;;;;;;;12.35;5.78;;;12.80;99.90;;;13.00;100.00;99226.13;4825370;29;20087;-61
2023/10/28 04:19:33;;;;;;;11.95;5.82;;;12.80;99.90;;;13.11;100.00;99223.03;4825353;29;20061;-62
2023/10/28 04:22:02;;;;;;;12.10;6.40;;;12.90;99.90;;;12.99;100.00;99216.41;4815447;29;20548;-62
2023/10/28 04:24:30;;;;;;;15.32;6.47;;;12.80;99.90;;;13.01;100.00;99229.63;4808959;29;20058;-62
2023/10/28 04:27:00;;;;;;;10.55;6.15;;;12.80;99.90;;;12.89;100.00;99215.06;4809326;29;20050;-62
2023/10/28 04:29:29;;;;;;;13.33;6.03;;;12.70;99.90;;;12.97;100.00;99223.56;4825208;29;20054;-62
2023/10/28 04:31:57;;;;;;;11.82;6.45;;;12.80;99.90;;;12.89;100.00;99219.53;4825452;29;20050;-62
2023/10/28 04:34:26;;;;;;;14.48;6.10;;;12.70;99.90;;;12.96;100.00;99224.50;4825200;29;20508;-62
2023/10/28 04:37:05;;;;;;;12.70;6.07;;;12.80;99.90;;;13.09;100.00;99208.97;4809280;29;20062;-61
2023/10/28 04:39:33;;;;;;;11.55;6.53;;;12.90;99.90;;;13.07;100.00;99216.13;4825054;29;20405;-63
2023/10/28 04:42:05;;;;;;;10.48;6.38;;;12.90;99.90;;;13.01;100.00;99205.72;4810739;29;20094;-62
2023/10/28 04:44:33;;;;;;;14.00;7.03;;;12.90;99.90;;;13.05;100.00;99224.16;4825129;29;20054;-62
2023/10/28 04:47:02;;;;;;;14.38;7.22;;;12.90;99.90;;;13.09;100.00;99214.28;4814580;29;20069;-62
2023/10/28 04:49:31;;;;;;;16.65;6.80;;;12.90;99.90;;;13.07;100.00;99203.72;4824597;29;20347;-64
2023/10/28 04:51:59;;;;;;;12.35;6.88;;;12.90;99.90;;;13.06;100.00;99209.13;4825331;29;20062;-64
2023/10/28 04:54:27;;;;;;;13.70;6.53;;;12.90;99.90;;;13.14;100.00;99213.16;4825224;29;20058;-64
2023/10/28 04:56:58;;;;;;;14.65;6.82;;;12.90;99.90;;;13.20;100.00;99201.44;4825446;29;20055;-64
2023/10/28 04:59:29;;;;;;;16.10;7.07;;;13.00;99.90;;;13.15;100.00;99209.59;4825521;29;20082;-61
2023/10/28 05:01:58;;;;;;;12.15;6.38;;;13.00;99.90;;;13.14;100.00;99204.34;4825011;29;20054;-62
2023/10/28 05:04:27;;;;;;;13.30;6.75;;;13.00;99.90;;;13.15;100.00;99203.41;4808659;29;20485;-62
2023/10/28 05:06:55;;;;;;;17.48;6.93;;;13.00;99.90;;;13.05;100.00;99207.38;4824806;29;20054;-61
2023/10/28 05:09:24;;;;;;;16.67;7.07;;;12.90;99.90;;;13.06;100.00;99211.78;4824450;29;20047;-61
2023/10/28 05:11:54;;;;;;;11.82;7.28;;;12.90;99.90;;;13.01;100.00;99201.28;4824699;29;20144;-62
2023/10/28 05:14:23;;;;;;;13.90;7.32;;;12.90;99.90;;;13.03;100.00;99194.16;4824846;29;20057;-62
2023/10/28 05:16:54;;;;;;;18.02;8.25;;;12.90;99.90;;;12.84;100.00;99185.19;4820485;29;20437;-62
2023/10/28 05:19:23;;;;;;;22.40;8.15;;;12.80;99.90;;;13.00;100.00;99204.03;4824635;29;20411;-62
2023/10/28 05:21:51;;;;;;;18.13;7.78;;;12.90;99.90;;;12.91;100.00;99178.72;4824363;29;20105;-62
2023/10/28 05:24:19;;;;;;;15.35;7.45;;;12.80;99.90;;;13.06;100.00;99194.06;4824366;29;20050;-62
2023/10/28 05:26:48;;;;;;;14.00;7.53;;;12.90;99.90;;;13.03;100.00;99199.47;4824522;29;20118;-64
2023/10/28 05:29:17;;;;;;;17.23;7.47;;;12.90;99.90;;;12.87;100.00;99195.72;4824414;29;20111;-64
2023/10/28 05:31:45;;;;;;;14.00;7.03;;;12.80;99.90;;;12.94;100.00;99186.56;4824694;29;20054;-64
2023/10/28 05:34:20;;;;;;;14.13;7.15;;;12.80;99.90;;;12.97;100.00;99197.03;4824796;29;20054;-64
2023/10/28 05:36:48;;;;;;;18.23;7.45;;;12.80;99.90;;;12.92;100.00;99191.06;4824829;29;20057;-64
2023/10/28 05:39:17;;;;;;;20.20;7.38;;;12.80;99.90;;;12.77;100.00;99202.31;4825164;29;20050;-64
2023/10/28 05:41:45;;;;;;;19.45;7.50;;;12.70;99.90;;;12.68;100.00;99195.56;4824424;29;20417;-63
2023/10/28 05:44:14;;;;;;;15.60;7.22;;;12.60;99.90;;;12.83;100.00;99190.56;4824399;29;20125;-64
2023/10/28 05:46:44;;;;;;;17.30;7.78;;;12.70;99.90;;;12.82;100.00;99192.34;4824576;29;20054;-64
2023/10/28 05:49:14;;;;;;;13.23;7.53;;;12.70;99.90;;;12.70;100.00;99190.19;4824422;29;20503;-64
2023/10/28 05:51:44;;;;;;;20.40;8.50;;;12.70;99.90;;;12.82;100.00;99202.97;4824381;29;20046;-64
2023/10/28 05:54:12;;;;;;;15.90;8.07;;;12.70;99.90;;;12.80;100.00;99193.34;4824412;29;20079;-64
2023/10/28 05:56:40;;;;;;;17.48;8.15;;;12.70;99.90;;;12.71;100.00;99199.91;4824182;29;20468;-62
2023/10/28 05:59:09;;;;;;;20.48;8.40;;;12.60;99.90;;;12.73;100.00;99192.75;4824189;29;20050;-62
2023/10/28 06:01:37;;;;;;;17.30;8.63;;;12.60;99.90;;;12.82;100.00;99199.44;4824018;29;20066;-64
2023/10/28 06:04:07;;;;;;;15.23;8.57;;;12.70;99.90;;;12.68;100.00;99187.59;4824321;29;20114;-64
2023/10/28 06:06:36;;;;;;;17.35;9.13;;;12.60;99.90;;;12.73;100.00;99197.16;4824261;29;20047;-64
2023/10/28 06:09:09;;;;;;;16.42;9.15;;;12.60;99.90;;;12.73;100.00;99197.16;4823940;29;20100;-64
2023/10/28 06:11:38;;;;;;;17.70;9.25;;;12.60;99.90;;;12.70;100.00;99185.75;4823971;29;20058;-65
2023/10/28 06:14:06;;;;;;;17.20;9.57;;;12.60;99.90;;;12.75;100.00;99196.19;4824171;29;20042;-64
2023/10/28 06:16:35;;;;;;;16.83;8.95;;;12.60;99.90;;;12.80;100.00;99204.81;4823734;29;20081;-64
2023/10/28 06:19:04;;;;;;;21.35;9.57;;;12.70;99.90;;;12.76;100.00;99192.59;4823719;29;20050;-64
2023/10/28 06:21:33;;;;;;;13.43;8.30;;;12.70;99.90;;;12.74;100.00;99217.47;4823934;29;20102;-64
2023/10/28 06:24:02;;;;;;;19.70;9.15;;;12.60;99.90;;;12.80;100.00;99199.50;4823836;29;20061;-64
2023/10/28 06:26:32;;;;;;;16.80;8.60;;;12.70;99.90;;;12.88;100.00;99191.25;4823543;29;20093;-64
2023/10/28 06:29:00;;;;;;;15.85;8.63;;;12.70;99.90;;;12.86;100.00;99193.97;4824192;29;20050;-64
2023/10/28 06:31:29;;;;;;;14.07;9.13;;;12.70;99.90;;;12.90;100.00;99200.88;4823756;29;20058;-64
2023/10/28 06:33:59;;;;;;;16.73;8.45;;;12.80;99.90;;;13.05;100.00;99202.94;4823698;29;20099;-64
2023/10/28 06:36:28;;;;;;;16.02;8.43;;;12.90;99.90;;;13.02;100.00;99210.13;4823545;29;20191;-64
2023/10/28 06:38:56;;;;;;;18.83;8.27;;;12.90;99.90;;;13.04;100.00;99206.53;4823724;29;20132;-64
2023/10/28 06:41:25;;;;;;;14.73;8.18;;;12.90;99.90;;;12.97;100.00;99205.00;4823430;29;20137;-64
2023/10/28 06:43:55;;;;;;;20.48;8.30;;;12.90;99.90;;;12.97;100.00;99197.03;4823631;29;20462;-64
2023/10/28 06:46:25;;;;;;;20.02;8.38;;;12.90;99.90;;;12.91;100.00;99202.59;4823673;29;20408;-64
2023/10/28 06:48:53;;;;;;;19.38;8.07;;;12.80;99.90;;;12.98;100.00;99200.56;4823428;29;20049;-64
2023/10/28 06:51:21;;;;;;;21.05;7.93;;;12.80;99.90;;;12.99;100.00;99192.53;4823275;29;20042;-64
2023/10/28 06:53:50;;;;;;;17.13;7.38;;;12.80;99.90;;;12.90;100.00;99198.22;4823467;29;20567;-64
2023/10/28 06:56:18;;;;;;;16.25;7.22;;;12.80;99.90;;;13.00;100.00;99196.06;4823345;29;20062;-63
2023/10/28 06:58:47;;;;;;;21.05;8.27;;;12.80;99.90;;;13.07;100.00;99209.03;4823831;29;20054;-64
2023/10/28 07:01:16;;;;;;;21.92;7.63;;;12.90;99.90;;;13.16;100.00;99192.72;4812499;29;20054;-63
2023/10/28 07:03:45;;;;;;;16.95;6.90;;;13.00;99.90;;;13.21;100.00;99195.19;4823632;29;20485;-63
2023/10/28 07:06:15;;;;;;;15.85;6.95;;;13.10;99.90;;;13.22;100.00;99205.75;4823213;29;20089;-64
2023/10/28 07:08:45;;;;;;;15.00;6.95;;;13.10;99.90;;;13.25;100.00;99197.66;4823482;29;20107;-63
2023/10/28 07:11:14;;;;;;;12.50;6.40;;;13.10;99.90;;;13.30;100.00;99203.63;4823134;29;20046;-63
2023/10/28 07:13:43;;;;;;;16.25;7.28;;;13.20;99.90;;;13.33;100.00;99207.97;4824631;29;20241;-63
2023/10/28 07:16:14;;;;;;;13.70;6.78;;;13.20;99.90;;;13.19;100.00;99189.09;4827285;29;20056;-64
2023/10/28 07:18:45;;;;;;;21.60;7.30;;;13.20;99.90;;;13.29;100.00;99211.69;4827395;29;20133;-65
2023/10/28 07:21:14;;;;;;;13.23;6.03;;;13.20;99.90;;;13.28;100.00;99226.72;4826878;29;20050;-64
2023/10/28 07:23:43;;;;;;;13.73;6.07;;;13.20;99.90;;;13.17;100.00;99175.00;4826684;29;20057;-64
2023/10/28 07:26:12;;;;;;;21.33;6.35;;;13.20;99.90;;;13.47;100.00;99218.88;4826620;29;20185;-63
2023/10/28 07:28:41;;;;;;;17.73;6.35;;;13.30;99.90;;;13.39;100.00;99234.28;4827005;29;20061;-63
2023/10/28 07:31:09;;;;;;;16.67;6.88;;;13.30;99.90;;;13.45;100.00;99213.59;4826698;29;20042;-63
2023/10/28 07:33:38;;;;;;;13.80;6.20;;;13.30;99.90;;;12.71;100.00;99099.09;4810486;29;20088;-64
2023/10/28 07:36:09;;;;;;;18.48;6.78;;;13.30;99.90;;;13.42;100.00;99223.50;4813015;29;20058;-62
2023/10/28 07:38:40;;;;;;;18.45;6.03;;;13.30;99.90;;;13.45;100.00;99228.69;4826528;29;20464;-62
2023/10/28 07:41:09;;;;;;;18.33;6.40;;;13.30;99.90;;;13.48;100.00;99228.56;4826208;29;20062;-64
2023/10/28 07:43:37;;;;;;;21.13;6.28;;;13.30;99.90;;;13.51;100.00;99223.13;4826101;29;20432;-63
2023/10/28 07:46:06;;;;;;;16.92;6.00;;;13.30;99.90;;;13.44;100.00;99242.88;4810056;29;20554;-63
2023/10/28 07:48:34;;;;;;;20.38;6.68;;;13.30;99.90;;;13.47;100.00;99227.69;4826243;29;20047;-63
2023/10/28 07:51:02;;;;;;;20.50;6.47;;;13.30;99.90;;;13.57;100.00;99237.00;4825873;29;20059;-65
2023/10/28 07:53:32;;;;;;;18.08;6.78;;;13.40;99.90;;;13.52;100.00;99222.19;4825903;29;20047;-63
2023/10/28 07:56:01;;;;;;;18.17;6.90;;;13.40;99.90;;;13.46;100.00;99247.22;4826014;29;20465;-62
2023/10/28 07:58:29;;;;;;;15.63;6.07;;;13.30;99.90;;;13.43;100.00;99247.34;4825966;29;20107;-63
2023/10/28 08:00:59;;;;;;;11.50;5.68;;;13.30;99.90;;;13.39;100.00;99248.38;4825839;29;20054;-63
2023/10/28 08:03:28;;;;;;;13.85;6.22;;;13.20;99.90;;;13.38;100.00;99233.41;4826295;29;20107;-63
2023/10/28 08:05:56;;;;;;;19.13;6.55;;;13.20;99.90;;;13.43;100.00;99222.59;4825712;29;20058;-62
2023/10/28 08:08:25;;;;;;;18.70;6.78;;;13.30;99.90;;;13.47;100.00;99245.44;4825831;29;20121;-63
2023/10/28 08:10:55;;;;;;;15.00;6.15;;;13.30;99.90;;;13.55;100.00;99240.63;4825739;29;20046;-62
2023/10/28 08:13:23;;;;;;;17.27;5.97;;;13.40;99.90;;;13.53;100.00;99251.34;4826377;29;20125;-63
2023/10/28 08:15:52;;;;;;;15.25;6.43;;;13.40;99.90;;;13.59;100.00;99243.09;4825550;29;20046;-62
2023/10/28 08:18:21;;;;;;;16.40;6.15;;;13.40;99.90;;;13.57;100.00;99244.97;4826282;29;20125;-61
2023/10/28 08:20:49;;;;;;;14.52;5.97;;;13.40;99.90;;;13.60;100.00;99249.28;4825567;29;20338;-61
2023/10/28 08:23:18;;;;;;;16.23;5.63;;;13.50;99.90;;;13.71;100.00;99240.84;4825285;29;20520;-61
2023/10/28 08:25:47;;;;;;;15.77;6.20;;;13.50;99.90;;;13.76;100.00;99252.16;4808127;29;20058;-63
2023/10/28 08:28:17;;;;;;;15.52;5.78;;;13.60;99.90;;;13.76;100.00;99250.38;4811094;29;20050;-62
2023/10/28 08:30:46;;;;;;;12.70;5.57;;;13.60;99.90;;;13.77;100.00;99243.25;4809081;29;20117;-63
2023/10/28 08:33:14;;;;;;;19.55;7.07;;;13.60;99.90;;;13.67;100.00;99237.47;4825425;29;20509;-65
2023/10/28 08:35:42;;;;;;;14.85;5.85;;;13.60;99.90;;;13.83;100.00;99251.81;4825570;29;20097;-63
2023/10/28 08:38:11;;;;;;;18.92;6.53;;;13.60;99.90;;;13.91;100.00;99256.81;4825655;29;20141;-63
2023/10/28 08:40:46;;;;;;;17.50;6.55;;;13.70;99.90;;;13.82;100.00;99255.41;4825499;29;20106;-63
2023/10/28 08:43:18;;;;;;;14.43;5.35;;;13.60;99.90;;;13.93;100.00;99254.94;4809012;29;20072;-63
2023/10/28 08:45:47;;;;;;;13.73;5.53;;;13.70;99.90;;;13.93;100.00;99257.59;4825530;29;20042;-63
2023/10/28 08:48:16;;;;;;;14.20;5.55;;;13.70;99.90;;;13.94;100.00;99246.03;4824971;29;20049;-63
2023/10/28 08:50:50;;;;;;;18.73;5.82;;;13.80;99.90;;;13.87;100.00;99268.50;4824800;29;20050;-63
2023/10/28 08:53:20;;;;;;;14.93;5.60;;;13.70;99.90;;;13.95;100.00;99271.69;4812236;29;20472;-62
2023/10/28 08:55:50;;;;;;;13.95;5.25;;;13.70;99.90;;;13.95;100.00;99277.88;4825021;29;20111;-62
2023/10/28 08:58:21;;;;;;;15.98;5.93;;;13.70;99.90;;;13.96;100.00;99278.72;4825592;29;20054;-62
2023/10/28 09:00:51;;;;;;;14.00;5.25;;;13.70;99.90;;;13.98;100.00;99271.53;4824961;29;20058;-63
2023/10/28 09:03:27;;;;;;;13.15;5.05;;;13.80;99.90;;;13.98;100.00;99275.06;4824882;29;20734;-62
2023/10/28 09:05:59;;;;;;;15.23;5.60;;;13.80;99.90;;;13.97;100.00;99270.69;4813436;29;20183;-63
2023/10/28 09:08:28;;;;;;;15.63;5.45;;;13.80;99.90;;;13.36;100.00;99165.34;4808480;29;20137;-62
2023/10/28 09:10:57;;;;;;;15.50;5.10;;;13.80;99.90;;;14.16;100.00;99278.72;4824519;29;20047;-62
2023/10/28 09:13:28;;;;;;;13.13;5.07;;;13.90;99.90;;;14.17;100.00;99281.31;4824673;29;20058;-62
2023/10/28 09:15:58;;;;;;;14.73;5.82;;;14.00;99.90;;;14.12;100.00;99274.47;4824767;29;20056;-64
2023/10/28 09:18:38;;;;;;;13.60;5.40;;;13.90;99.90;;;14.08;100.00;99284.38;4824437;29;20130;-63
2023/10/28 09:21:09;;;;;;;11.45;5.13;;;13.90;99.90;;;13.98;100.00;99264.44;4824650;29;20073;-63
2023/10/28 09:23:39;;;;;;;11.32;5.20;;;13.90;99.90;;;14.19;100.00;99313.13;4808526;29;20133;-63
2023/10/28 09:26:10;;;;;;;12.88;5.32;;;13.90;99.90;;;14.30;100.00;99295.81;4825144;29;20062;-63
2023/10/28 09:28:48;;;;;;;11.45;4.95;;;14.00;99.90;;;14.28;100.00;99304.81;4824769;29;20042;-64
2023/10/28 09:31:29;;;;;;;12.52;5.13;;;14.10;99.90;;;14.20;100.00;99299.81;4824476;29;20069;-64
2023/10/28 09:33:58;;;;;;;13.00;4.65;;;14.00;99.90;;;14.21;100.00;99301.50;4824984;29;20051;-63
2023/10/28 09:36:27;;;;;;;12.90;5.57;;;14.00;99.90;;;14.25;100.00;99308.44;4824209;29;20061;-62
2023/10/28 09:38:58;;;;;;;11.40;4.38;;;14.00;99.90;;;14.10;100.00;99292.28;4808031;29;20061;-63
2023/10/28 09:41:28;;;;;;;15.95;4.63;;;13.90;99.90;;;14.19;100.00;99303.38;4824342;29;20054;-61
2023/10/28 09:44:03;;;;;;;10.65;5.07;;;14.00;99.90;;;14.22;100.00;99297.06;4824293;29;20046;-61
2023/10/28 09:46:35;;;;;;;15.02;4.70;;;14.00;99.90;;;14.10;100.00;99311.75;4824138;29;20141;-66
2023/10/28 09:49:07;;;;;;;14.15;4.53;;;13.90;99.90;;;14.14;100.00;99321.34;4824118;29;20382;-64
2023/10/28 09:51:41;;;;;;;13.02;5.28;;;13.90;99.90;;;14.22;100.00;99289.09;4815130;29;20058;-63
2023/10/28 09:54:19;;;;;;;10.27;4.90;;;13.90;99.90;;;14.11;100.00;99276.25;4824127;29;20498;-62
2023/10/28 09:56:49;;;;;;;9.15;4.38;;;14.00;99.90;;;14.23;100.00;99314.72;4824082;29;20051;-61
2023/10/28 09:59:23;;;;;;;10.65;4.80;;;14.00;99.90;;;14.25;100.00;99312.88;4824145;29;20042;-61
2023/10/28 10:02:11;;;;;;;9.43;4.70;;;14.00;99.90;;;14.29;100.00;99315.38;4824085;29;20054;-62
2023/10/28 10:04:47;;;;;;;14.70;5.15;;;14.00;99.90;;;14.38;100.00;99320.28;4823992;29;20058;-63
2023/10/28 10:07:16;;;;;;;11.35;4.88;;;14.10;99.90;;;14.40;100.00;99333.53;4824017;29;20477;-62
2023/10/28 10:09:47;;;;;;;11.63;4.53;;;14.20;99.90;;;14.39;99.89;99297.19;4823806;29;20543;-62
2023/10/28 10:12:17;;;;;;;10.30;4.45;;;14.20;99.90;;;14.39;99.52;99322.00;4823898;29;20057;-62
2023/10/28 10:14:48;;;;;;;13.98;4.57;;;14.10;99.90;;;14.35;99.39;99327.53;4824464;29;20098;-62